sensor_id;sensor_type;location;lat;lon;timestamp;temperature;humidity
51982;DHT22;37998;53.416;6.730;2023-05-10T00:01:13;14.60;99.90
51982;DHT22;37998;53.416;6.730;2023-05-10T00:03:39;14.50;99.90
51982;DHT22;37998;53.416;6.730;2023-05-10T00:06:05;14.60;99.90
51982;DHT22;37998;53.416;6.730;2023-05-10T00:08:31;14.50;99.90
51982;DHT22;37998;53.416;6.730;2023-05-10T00:10:57;14.50;99.90
51982;DHT22;37998;53.416;6.730;2023-05-10T00:13:23;14.40;99.90
51982;DHT22;37998;53.416;6.730;2023-05-10T00:15:49;14.20;99.90
51982;DHT22;37998;53.416;6.730;2023-05-10T00:18:16;14.20;99.90
51982;DHT22;37998;53.416;6.730;2023-05-10T00:20:42;14.10;99.90
51982;DHT22;37998;53.416;6.730;2023-05-10T00:23:08;14.00;99.90
51982;DHT22;37998;53.416;6.730;2023-05-10T00:25:34;14.00;99.90
51982;DHT22;37998;53.416;6.730;2023-05-10T00:28:00;13.60;99.90
51982;DHT22;37998;53.416;6.730;2023-05-10T00:30:27;13.90;99.90
51982;DHT22;37998;53.416;6.730;2023-05-10T00:32:55;13.90;99.90
51982;DHT22;37998;53.416;6.730;2023-05-10T00:35:21;13.80;99.90
51982;DHT22;37998;53.416;6.730;2023-05-10T00:37:47;13.80;99.90
51982;DHT22;37998;53.416;6.730;2023-05-10T00:40:14;13.60;99.90
51982;DHT22;37998;53.416;6.730;2023-05-10T00:42:42;13.60;99.90
51982;DHT22;37998;53.416;6.730;2023-05-10T00:45:08;13.60;99.90
51982;DHT22;37998;53.416;6.730;2023-05-10T00:47:35;13.50;99.90
51982;DHT22;37998;53.416;6.730;2023-05-10T00:50:02;13.50;99.90
51982;DHT22;37998;53.416;6.730;2023-05-10T00:52:29;13.50;99.90
51982;DHT22;37998;53.416;6.730;2023-05-10T00:54:55;13.50;99.90
51982;DHT22;37998;53.416;6.730;2023-05-10T00:57:22;13.50;99.90
51982;DHT22;37998;53.416;6.730;2023-05-10T00:59:48;13.50;99.90
51982;DHT22;37998;53.416;6.730;2023-05-10T01:02:14;13.50;99.90
51982;DHT22;37998;53.416;6.730;2023-05-10T01:04:40;13.40;99.90
51982;DHT22;37998;53.416;6.730;2023-05-10T01:07:06;13.40;99.90
51982;DHT22;37998;53.416;6.730;2023-05-10T01:09:33;13.30;99.90
51982;DHT22;37998;53.416;6.730;2023-05-10T01:12:00;13.30;99.90
51982;DHT22;37998;53.416;6.730;2023-05-10T01:14:28;13.30;99.90
51982;DHT22;37998;53.416;6.730;2023-05-10T01:16:55;13.30;99.90
51982;DHT22;37998;53.416;6.730;2023-05-10T01:19:26;13.20;99.90
51982;DHT22;37998;53.416;6.730;2023-05-10T01:33:46;13.20;99.90
51982;DHT22;37998;53.416;6.730;2023-05-10T01:36:35;13.10;99.90
51982;DHT22;37998;53.416;6.730;2023-05-10T01:41:52;13.10;99.90
51982;DHT22;37998;53.416;6.730;2023-05-10T01:44:29;13.10;99.90
51982;DHT22;37998;53.416;6.730;2023-05-10T01:47:06;13.10;99.90
51982;DHT22;37998;53.416;6.730;2023-05-10T01:49:39;13.10;99.90
51982;DHT22;37998;53.416;6.730;2023-05-10T01:52:10;13.10;99.90
51982;DHT22;37998;53.416;6.730;2023-05-10T01:54:53;13.10;99.90
51982;DHT22;37998;53.416;6.730;2023-05-10T01:57:20;13.10;99.90
51982;DHT22;37998;53.416;6.730;2023-05-10T01:59:50;13.10;99.90
51982;DHT22;37998;53.416;6.730;2023-05-10T02:02:18;13.10;99.90
51982;DHT22;37998;53.416;6.730;2023-05-10T02:04:45;13.10;99.90
51982;DHT22;37998;53.416;6.730;2023-05-10T02:07:12;13.10;99.90
51982;DHT22;37998;53.416;6.730;2023-05-10T02:09:38;13.00;99.90
51982;DHT22;37998;53.416;6.730;2023-05-10T02:12:07;13.00;99.90
51982;DHT22;37998;53.416;6.730;2023-05-10T02:14:36;13.00;99.90
51982;DHT22;37998;53.416;6.730;2023-05-10T02:17:04;12.90;99.90
51982;DHT22;37998;53.416;6.730;2023-05-10T02:19:32;13.00;99.90
51982;DHT22;37998;53.416;6.730;2023-05-10T02:22:00;13.00;99.90
51982;DHT22;37998;53.416;6.730;2023-05-10T02:24:27;12.90;99.90
51982;DHT22;37998;53.416;6.730;2023-05-10T02:26:54;13.00;99.90
51982;DHT22;37998;53.416;6.730;2023-05-10T02:29:23;13.00;99.90
51982;DHT22;37998;53.416;6.730;2023-05-10T02:31:52;13.00;99.90
51982;DHT22;37998;53.416;6.730;2023-05-10T02:34:20;13.10;99.90
51982;DHT22;37998;53.416;6.730;2023-05-10T02:36:48;13.00;99.90
51982;DHT22;37998;53.416;6.730;2023-05-10T02:39:14;13.00;99.90
51982;DHT22;37998;53.416;6.730;2023-05-10T02:41:42;13.00;99.90
51982;DHT22;37998;53.416;6.730;2023-05-10T02:44:09;13.00;99.90
51982;DHT22;37998;53.416;6.730;2023-05-10T02:46:36;13.00;99.90
51982;DHT22;37998;53.416;6.730;2023-05-10T02:49:03;13.00;99.90
51982;DHT22;37998;53.416;6.730;2023-05-10T02:51:32;13.00;99.90
51982;DHT22;37998;53.416;6.730;2023-05-10T02:54:03;13.00;99.90
51982;DHT22;37998;53.416;6.730;2023-05-10T02:56:34;12.90;99.90
51982;DHT22;37998;53.416;6.730;2023-05-10T02:59:01;13.00;99.90
51982;DHT22;37998;53.416;6.730;2023-05-10T03:01:27;12.90;99.90
51982;DHT22;37998;53.416;6.730;2023-05-10T03:03:53;12.90;99.90
51982;DHT22;37998;53.416;6.730;2023-05-10T03:06:19;12.90;99.90
51982;DHT22;37998;53.416;6.730;2023-05-10T03:08:45;12.90;99.90
51982;DHT22;37998;53.416;6.730;2023-05-10T03:13:56;12.80;99.90
51982;DHT22;37998;53.416;6.730;2023-05-10T03:16:31;12.80;99.90
51982;DHT22;37998;53.416;6.730;2023-05-10T03:19:06;12.90;99.90
51982;DHT22;37998;53.416;6.730;2023-05-10T03:21:35;12.90;99.90
51982;DHT22;37998;53.416;6.730;2023-05-10T03:24:07;13.00;99.90
51982;DHT22;37998;53.416;6.730;2023-05-10T03:26:35;12.70;99.90
51982;DHT22;37998;53.416;6.730;2023-05-10T03:29:08;12.80;99.90
51982;DHT22;37998;53.416;6.730;2023-05-10T03:31:34;12.80;99.90
51982;DHT22;37998;53.416;6.730;2023-05-10T03:34:00;12.80;99.90
51982;DHT22;37998;53.416;6.730;2023-05-10T03:36:27;12.80;99.90
51982;DHT22;37998;53.416;6.730;2023-05-10T03:38:53;13.00;99.90
51982;DHT22;37998;53.416;6.730;2023-05-10T03:41:20;12.70;99.90
51982;DHT22;37998;53.416;6.730;2023-05-10T03:43:47;12.80;99.90
51982;DHT22;37998;53.416;6.730;2023-05-10T03:46:13;12.80;99.90
51982;DHT22;37998;53.416;6.730;2023-05-10T03:48:39;12.80;99.90
51982;DHT22;37998;53.416;6.730;2023-05-10T03:51:05;12.80;99.90
51982;DHT22;37998;53.416;6.730;2023-05-10T03:53:31;12.80;99.90
51982;DHT22;37998;53.416;6.730;2023-05-10T03:55:57;12.80;99.90
51982;DHT22;37998;53.416;6.730;2023-05-10T03:58:23;12.80;99.90
51982;DHT22;37998;53.416;6.730;2023-05-10T04:00:49;12.70;99.90
51982;DHT22;37998;53.416;6.730;2023-05-10T04:03:15;12.70;99.90
51982;DHT22;37998;53.416;6.730;2023-05-10T04:05:40;12.80;99.90
51982;DHT22;37998;53.416;6.730;2023-05-10T04:08:06;12.80;99.90
51982;DHT22;37998;53.416;6.730;2023-05-10T04:10:32;12.80;99.90
51982;DHT22;37998;53.416;6.730;2023-05-10T04:12:58;12.70;99.90
51982;DHT22;37998;53.416;6.730;2023-05-10T04:15:24;12.70;99.90
51982;DHT22;37998;53.416;6.730;2023-05-10T04:17:50;12.80;99.90
51982;DHT22;37998;53.416;6.730;2023-05-10T04:20:16;12.70;99.90
51982;DHT22;37998;53.416;6.730;2023-05-10T04:22:42;12.80;99.90
51982;DHT22;37998;53.416;6.730;2023-05-10T04:25:08;12.70;99.90
51982;DHT22;37998;53.416;6.730;2023-05-10T04:27:34;12.80;99.90
51982;DHT22;37998;53.416;6.730;2023-05-10T04:30:00;12.80;99.90
51982;DHT22;37998;53.416;6.730;2023-05-10T04:32:26;12.80;99.90
51982;DHT22;37998;53.416;6.730;2023-05-10T04:34:52;12.80;99.90
51982;DHT22;37998;53.416;6.730;2023-05-10T04:37:18;12.70;99.90
51982;DHT22;37998;53.416;6.730;2023-05-10T04:39:45;12.80;99.90
51982;DHT22;37998;53.416;6.730;2023-05-10T04:42:11;12.70;99.90
51982;DHT22;37998;53.416;6.730;2023-05-10T04:44:37;12.70;99.90
51982;DHT22;37998;53.416;6.730;2023-05-10T04:47:03;12.70;99.90
51982;DHT22;37998;53.416;6.730;2023-05-10T04:49:29;12.70;99.90
51982;DHT22;37998;53.416;6.730;2023-05-10T04:51:55;12.70;99.90
51982;DHT22;37998;53.416;6.730;2023-05-10T04:54:21;12.70;99.90
51982;DHT22;37998;53.416;6.730;2023-05-10T04:56:47;12.70;99.90
51982;DHT22;37998;53.416;6.730;2023-05-10T04:59:13;12.70;99.90
51982;DHT22;37998;53.416;6.730;2023-05-10T05:01:39;12.70;99.90
51982;DHT22;37998;53.416;6.730;2023-05-10T05:04:05;12.70;99.90
51982;DHT22;37998;53.416;6.730;2023-05-10T05:06:32;12.70;99.90
51982;DHT22;37998;53.416;6.730;2023-05-10T05:08:58;12.70;99.90
51982;DHT22;37998;53.416;6.730;2023-05-10T05:11:24;12.70;99.90
51982;DHT22;37998;53.416;6.730;2023-05-10T05:13:51;12.80;99.90
51982;DHT22;37998;53.416;6.730;2023-05-10T05:16:17;12.70;99.90
51982;DHT22;37998;53.416;6.730;2023-05-10T05:18:43;12.80;99.90
51982;DHT22;37998;53.416;6.730;2023-05-10T05:21:19;12.70;99.90
51982;DHT22;37998;53.416;6.730;2023-05-10T05:23:45;12.80;99.90
51982;DHT22;37998;53.416;6.730;2023-05-10T05:26:11;12.80;99.90
51982;DHT22;37998;53.416;6.730;2023-05-10T05:28:37;12.70;99.90
51982;DHT22;37998;53.416;6.730;2023-05-10T05:31:07;12.80;99.90
51982;DHT22;37998;53.416;6.730;2023-05-10T05:33:33;12.80;99.90
51982;DHT22;37998;53.416;6.730;2023-05-10T05:36:03;12.80;99.90
51982;DHT22;37998;53.416;6.730;2023-05-10T05:38:30;12.80;99.90
51982;DHT22;37998;53.416;6.730;2023-05-10T05:40:56;12.80;99.90
51982;DHT22;37998;53.416;6.730;2023-05-10T05:43:22;12.80;99.90
51982;DHT22;37998;53.416;6.730;2023-05-10T05:45:49;12.90;99.90
51982;DHT22;37998;53.416;6.730;2023-05-10T05:48:15;12.90;99.90
51982;DHT22;37998;53.416;6.730;2023-05-10T05:50:40;12.80;99.90
51982;DHT22;37998;53.416;6.730;2023-05-10T05:53:06;12.80;99.90
51982;DHT22;37998;53.416;6.730;2023-05-10T05:55:32;12.90;99.90
51982;DHT22;37998;53.416;6.730;2023-05-10T05:57:58;12.90;99.90
51982;DHT22;37998;53.416;6.730;2023-05-10T06:00:24;12.90;99.90
51982;DHT22;37998;53.416;6.730;2023-05-10T06:02:50;13.00;99.90
51982;DHT22;37998;53.416;6.730;2023-05-10T06:05:16;12.90;99.90
51982;DHT22;37998;53.416;6.730;2023-05-10T06:07:42;12.90;99.90
51982;DHT22;37998;53.416;6.730;2023-05-10T06:10:09;12.90;99.90
51982;DHT22;37998;53.416;6.730;2023-05-10T06:12:35;12.90;99.90
51982;DHT22;37998;53.416;6.730;2023-05-10T06:15:02;12.90;99.90
51982;DHT22;37998;53.416;6.730;2023-05-10T06:17:28;12.80;99.90
51982;DHT22;37998;53.416;6.730;2023-05-10T06:19:54;12.80;99.90
51982;DHT22;37998;53.416;6.730;2023-05-10T06:22:20;12.80;99.90
51982;DHT22;37998;53.416;6.730;2023-05-10T06:24:48;12.80;99.90
51982;DHT22;37998;53.416;6.730;2023-05-10T06:27:14;12.80;99.90
51982;DHT22;37998;53.416;6.730;2023-05-10T06:29:40;12.80;99.90
51982;DHT22;37998;53.416;6.730;2023-05-10T06:32:06;12.70;99.90
51982;DHT22;37998;53.416;6.730;2023-05-10T06:34:32;12.80;99.90
51982;DHT22;37998;53.416;6.730;2023-05-10T06:36:58;12.80;99.90
51982;DHT22;37998;53.416;6.730;2023-05-10T06:39:24;12.80;99.90
51982;DHT22;37998;53.416;6.730;2023-05-10T06:41:50;12.80;99.90
51982;DHT22;37998;53.416;6.730;2023-05-10T06:44:18;12.90;99.90
51982;DHT22;37998;53.416;6.730;2023-05-10T06:46:44;12.80;99.90
51982;DHT22;37998;53.416;6.730;2023-05-10T06:49:10;12.80;99.90
51982;DHT22;37998;53.416;6.730;2023-05-10T06:51:36;12.70;99.90
51982;DHT22;37998;53.416;6.730;2023-05-10T06:54:02;12.70;99.90
51982;DHT22;37998;53.416;6.730;2023-05-10T06:56:28;12.70;99.90
51982;DHT22;37998;53.416;6.730;2023-05-10T06:58:53;12.70;99.90
51982;DHT22;37998;53.416;6.730;2023-05-10T07:01:19;12.70;99.90
51982;DHT22;37998;53.416;6.730;2023-05-10T07:03:45;12.60;99.90
51982;DHT22;37998;53.416;6.730;2023-05-10T07:06:11;12.60;99.90
51982;DHT22;37998;53.416;6.730;2023-05-10T07:08:37;12.50;99.90
51982;DHT22;37998;53.416;6.730;2023-05-10T07:11:05;12.50;99.90
51982;DHT22;37998;53.416;6.730;2023-05-10T07:13:31;12.50;99.90
51982;DHT22;37998;53.416;6.730;2023-05-10T07:15:58;12.50;99.90
51982;DHT22;37998;53.416;6.730;2023-05-10T07:18:24;12.50;99.90
51982;DHT22;37998;53.416;6.730;2023-05-10T07:20:50;12.50;99.90
51982;DHT22;37998;53.416;6.730;2023-05-10T07:23:16;12.50;99.90
51982;DHT22;37998;53.416;6.730;2023-05-10T07:25:50;12.50;99.90
51982;DHT22;37998;53.416;6.730;2023-05-10T07:28:18;12.50;99.90
51982;DHT22;37998;53.416;6.730;2023-05-10T07:30:44;12.60;99.90
51982;DHT22;37998;53.416;6.730;2023-05-10T07:33:11;12.50;99.90
51982;DHT22;37998;53.416;6.730;2023-05-10T07:35:37;12.50;99.90
51982;DHT22;37998;53.416;6.730;2023-05-10T07:38:03;12.50;99.90
51982;DHT22;37998;53.416;6.730;2023-05-10T07:40:30;12.50;99.90
51982;DHT22;37998;53.416;6.730;2023-05-10T07:42:56;12.50;99.90
51982;DHT22;37998;53.416;6.730;2023-05-10T07:45:22;12.50;99.90
51982;DHT22;37998;53.416;6.730;2023-05-10T07:47:48;12.50;99.90
51982;DHT22;37998;53.416;6.730;2023-05-10T07:50:15;12.50;99.90
51982;DHT22;37998;53.416;6.730;2023-05-10T07:52:41;12.60;99.90
51982;DHT22;37998;53.416;6.730;2023-05-10T07:55:08;12.60;99.90
51982;DHT22;37998;53.416;6.730;2023-05-10T07:57:34;12.60;99.90
51982;DHT22;37998;53.416;6.730;2023-05-10T08:00:00;12.60;99.90
51982;DHT22;37998;53.416;6.730;2023-05-10T08:02:26;12.60;99.90
51982;DHT22;37998;53.416;6.730;2023-05-10T08:04:52;12.50;99.90
51982;DHT22;37998;53.416;6.730;2023-05-10T08:07:18;12.60;99.90
51982;DHT22;37998;53.416;6.730;2023-05-10T08:09:44;12.70;99.90
51982;DHT22;37998;53.416;6.730;2023-05-10T08:12:10;12.70;99.90
51982;DHT22;37998;53.416;6.730;2023-05-10T08:14:36;12.70;99.90
51982;DHT22;37998;53.416;6.730;2023-05-10T08:17:04;12.70;99.90
51982;DHT22;37998;53.416;6.730;2023-05-10T08:19:30;12.70;99.90
51982;DHT22;37998;53.416;6.730;2023-05-10T08:21:56;12.70;99.90
51982;DHT22;37998;53.416;6.730;2023-05-10T08:24:22;12.70;99.90
51982;DHT22;37998;53.416;6.730;2023-05-10T08:26:48;12.70;99.90
51982;DHT22;37998;53.416;6.730;2023-05-10T08:29:15;12.70;99.90
51982;DHT22;37998;53.416;6.730;2023-05-10T08:31:41;12.70;99.90
51982;DHT22;37998;53.416;6.730;2023-05-10T08:34:07;12.70;99.90
51982;DHT22;37998;53.416;6.730;2023-05-10T08:36:32;12.70;99.90
51982;DHT22;37998;53.416;6.730;2023-05-10T08:38:58;12.80;99.90
51982;DHT22;37998;53.416;6.730;2023-05-10T08:41:25;12.80;99.90
51982;DHT22;37998;53.416;6.730;2023-05-10T08:43:54;12.80;99.90
51982;DHT22;37998;53.416;6.730;2023-05-10T08:46:21;12.80;99.90
51982;DHT22;37998;53.416;6.730;2023-05-10T08:48:49;12.80;99.90
51982;DHT22;37998;53.416;6.730;2023-05-10T08:51:20;12.80;99.90
51982;DHT22;37998;53.416;6.730;2023-05-10T08:53:47;12.70;99.90
51982;DHT22;37998;53.416;6.730;2023-05-10T08:56:13;12.80;99.90
51982;DHT22;37998;53.416;6.730;2023-05-10T08:58:41;12.80;99.90
51982;DHT22;37998;53.416;6.730;2023-05-10T09:01:07;12.80;99.90
51982;DHT22;37998;53.416;6.730;2023-05-10T09:03:35;12.80;99.90
51982;DHT22;37998;53.416;6.730;2023-05-10T09:06:01;12.80;99.90
51982;DHT22;37998;53.416;6.730;2023-05-10T09:08:27;12.90;99.90
51982;DHT22;37998;53.416;6.730;2023-05-10T09:10:54;13.00;99.90
51982;DHT22;37998;53.416;6.730;2023-05-10T09:13:21;13.00;99.90
51982;DHT22;37998;53.416;6.730;2023-05-10T09:15:48;13.10;99.90
51982;DHT22;37998;53.416;6.730;2023-05-10T09:18:14;13.10;99.90
51982;DHT22;37998;53.416;6.730;2023-05-10T09:20:40;13.20;99.90
51982;DHT22;37998;53.416;6.730;2023-05-10T09:23:07;13.20;99.90
51982;DHT22;37998;53.416;6.730;2023-05-10T09:25:33;13.20;99.90
51982;DHT22;37998;53.416;6.730;2023-05-10T09:27:59;13.20;99.90
51982;DHT22;37998;53.416;6.730;2023-05-10T09:30:28;13.10;99.90
51982;DHT22;37998;53.416;6.730;2023-05-10T09:32:55;13.20;99.90
51982;DHT22;37998;53.416;6.730;2023-05-10T09:35:24;13.30;99.90
51982;DHT22;37998;53.416;6.730;2023-05-10T09:37:52;13.20;99.90
51982;DHT22;37998;53.416;6.730;2023-05-10T09:40:24;13.20;99.90
51982;DHT22;37998;53.416;6.730;2023-05-10T09:43:08;13.10;99.90
51982;DHT22;37998;53.416;6.730;2023-05-10T09:45:35;13.10;99.90
51982;DHT22;37998;53.416;6.730;2023-05-10T09:48:02;13.20;99.90
51982;DHT22;37998;53.416;6.730;2023-05-10T09:50:29;13.10;99.90
51982;DHT22;37998;53.416;6.730;2023-05-10T09:52:58;13.10;99.90
51982;DHT22;37998;53.416;6.730;2023-05-10T09:55:45;13.10;99.90
51982;DHT22;37998;53.416;6.730;2023-05-10T09:58:12;13.10;99.90
51982;DHT22;37998;53.416;6.730;2023-05-10T10:00:47;13.10;99.90
51982;DHT22;37998;53.416;6.730;2023-05-10T10:03:18;13.10;99.90
51982;DHT22;37998;53.416;6.730;2023-05-10T10:05:45;13.20;99.90
51982;DHT22;37998;53.416;6.730;2023-05-10T10:08:12;13.20;99.90
51982;DHT22;37998;53.416;6.730;2023-05-10T10:10:38;13.30;99.90
51982;DHT22;37998;53.416;6.730;2023-05-10T10:13:07;13.40;99.90
51982;DHT22;37998;53.416;6.730;2023-05-10T10:15:34;13.40;99.90
51982;DHT22;37998;53.416;6.730;2023-05-10T10:18:00;13.50;99.90
51982;DHT22;37998;53.416;6.730;2023-05-10T10:20:28;13.50;99.90
51982;DHT22;37998;53.416;6.730;2023-05-10T10:22:53;13.50;99.90
51982;DHT22;37998;53.416;6.730;2023-05-10T10:25:20;13.60;99.90
51982;DHT22;37998;53.416;6.730;2023-05-10T10:35:32;13.80;99.90
51982;DHT22;37998;53.416;6.730;2023-05-10T10:37:58;13.80;99.90
51982;DHT22;37998;53.416;6.730;2023-05-10T10:40:28;13.80;99.90
51982;DHT22;37998;53.416;6.730;2023-05-10T10:42:54;13.80;99.90
51982;DHT22;37998;53.416;6.730;2023-05-10T10:45:21;13.80;99.90
51982;DHT22;37998;53.416;6.730;2023-05-10T10:47:48;13.80;99.90
51982;DHT22;37998;53.416;6.730;2023-05-10T10:50:15;13.90;99.90
51982;DHT22;37998;53.416;6.730;2023-05-10T10:52:44;13.90;99.90
51982;DHT22;37998;53.416;6.730;2023-05-10T10:55:18;13.90;99.90
51982;DHT22;37998;53.416;6.730;2023-05-10T11:00:35;14.00;99.90
51982;DHT22;37998;53.416;6.730;2023-05-10T11:03:12;14.00;99.90
51982;DHT22;37998;53.416;6.730;2023-05-10T11:05:48;14.00;99.90
51982;DHT22;37998;53.416;6.730;2023-05-10T11:11:01;14.00;99.90
51982;DHT22;37998;53.416;6.730;2023-05-10T11:13:42;14.00;99.90
51982;DHT22;37998;53.416;6.730;2023-05-10T11:16:21;14.00;99.90
51982;DHT22;37998;53.416;6.730;2023-05-10T11:21:29;14.10;99.90
51982;DHT22;37998;53.416;6.730;2023-05-10T11:23:57;14.10;99.90
51982;DHT22;37998;53.416;6.730;2023-05-10T11:26:24;14.10;99.90
51982;DHT22;37998;53.416;6.730;2023-05-10T11:28:53;14.10;99.90
51982;DHT22;37998;53.416;6.730;2023-05-10T11:31:23;14.20;99.90
51982;DHT22;37998;53.416;6.730;2023-05-10T11:33:55;14.10;99.90
51982;DHT22;37998;53.416;6.730;2023-05-10T11:36:24;14.20;99.90
51982;DHT22;37998;53.416;6.730;2023-05-10T11:38:51;14.20;99.90
51982;DHT22;37998;53.416;6.730;2023-05-10T11:41:18;14.30;99.90
51982;DHT22;37998;53.416;6.730;2023-05-10T11:43:46;14.20;99.90
51982;DHT22;37998;53.416;6.730;2023-05-10T11:46:15;14.30;99.90
51982;DHT22;37998;53.416;6.730;2023-05-10T11:48:42;14.30;99.90
51982;DHT22;37998;53.416;6.730;2023-05-10T11:51:09;14.40;99.90
51982;DHT22;37998;53.416;6.730;2023-05-10T11:53:35;14.40;99.90
51982;DHT22;37998;53.416;6.730;2023-05-10T11:56:10;14.30;99.90
51982;DHT22;37998;53.416;6.730;2023-05-10T11:58:38;14.40;99.90
51982;DHT22;37998;53.416;6.730;2023-05-10T12:01:05;14.40;99.90
51982;DHT22;37998;53.416;6.730;2023-05-10T12:03:32;14.30;99.90
51982;DHT22;37998;53.416;6.730;2023-05-10T12:05:59;14.40;99.90
51982;DHT22;37998;53.416;6.730;2023-05-10T12:08:27;14.40;99.90
51982;DHT22;37998;53.416;6.730;2023-05-10T12:11:02;14.50;99.90
51982;DHT22;37998;53.416;6.730;2023-05-10T12:13:29;14.50;99.90
51982;DHT22;37998;53.416;6.730;2023-05-10T12:15:57;14.50;99.90
51982;DHT22;37998;53.416;6.730;2023-05-10T12:18:24;14.50;99.90
51982;DHT22;37998;53.416;6.730;2023-05-10T12:20:53;14.50;99.90
51982;DHT22;37998;53.416;6.730;2023-05-10T12:23:20;14.50;99.90
51982;DHT22;37998;53.416;6.730;2023-05-10T12:25:46;14.50;99.90
51982;DHT22;37998;53.416;6.730;2023-05-10T12:28:12;14.50;99.90
51982;DHT22;37998;53.416;6.730;2023-05-10T12:30:38;14.50;99.90
51982;DHT22;37998;53.416;6.730;2023-05-10T12:33:10;14.50;99.90
51982;DHT22;37998;53.416;6.730;2023-05-10T12:35:47;14.60;99.90
51982;DHT22;37998;53.416;6.730;2023-05-10T12:38:26;14.60;99.90
51982;DHT22;37998;53.416;6.730;2023-05-10T12:40:52;14.60;99.90
51982;DHT22;37998;53.416;6.730;2023-05-10T12:43:18;14.70;99.90
51982;DHT22;37998;53.416;6.730;2023-05-10T12:45:44;14.70;99.90
51982;DHT22;37998;53.416;6.730;2023-05-10T12:48:13;14.70;99.90
51982;DHT22;37998;53.416;6.730;2023-05-10T12:50:39;14.80;99.90
51982;DHT22;37998;53.416;6.730;2023-05-10T12:53:05;14.90;99.90
51982;DHT22;37998;53.416;6.730;2023-05-10T12:55:31;14.80;99.90
51982;DHT22;37998;53.416;6.730;2023-05-10T12:57:57;14.80;99.90
51982;DHT22;37998;53.416;6.730;2023-05-10T13:00:23;14.80;99.90
51982;DHT22;37998;53.416;6.730;2023-05-10T13:02:49;14.90;99.90
51982;DHT22;37998;53.416;6.730;2023-05-10T13:05:14;15.00;99.90
51982;DHT22;37998;53.416;6.730;2023-05-10T13:07:40;15.00;99.90
51982;DHT22;37998;53.416;6.730;2023-05-10T13:10:07;15.00;99.90
51982;DHT22;37998;53.416;6.730;2023-05-10T13:12:33;15.00;99.90
51982;DHT22;37998;53.416;6.730;2023-05-10T13:14:59;15.00;99.90
51982;DHT22;37998;53.416;6.730;2023-05-10T13:17:25;15.00;99.90
51982;DHT22;37998;53.416;6.730;2023-05-10T13:19:51;15.00;99.90
51982;DHT22;37998;53.416;6.730;2023-05-10T13:22:17;15.00;99.90
51982;DHT22;37998;53.416;6.730;2023-05-10T13:24:43;15.10;99.90
51982;DHT22;37998;53.416;6.730;2023-05-10T13:27:09;15.10;99.90
51982;DHT22;37998;53.416;6.730;2023-05-10T13:29:35;15.10;99.90
51982;DHT22;37998;53.416;6.730;2023-05-10T13:32:01;15.10;99.90
51982;DHT22;37998;53.416;6.730;2023-05-10T13:34:27;15.10;99.90
51982;DHT22;37998;53.416;6.730;2023-05-10T13:36:53;15.20;99.90
51982;DHT22;37998;53.416;6.730;2023-05-10T13:39:20;15.20;99.90
51982;DHT22;37998;53.416;6.730;2023-05-10T13:41:46;15.20;99.90
51982;DHT22;37998;53.416;6.730;2023-05-10T13:44:13;15.40;99.90
51982;DHT22;37998;53.416;6.730;2023-05-10T13:46:41;15.40;99.90
51982;DHT22;37998;53.416;6.730;2023-05-10T13:49:08;15.50;99.90
51982;DHT22;37998;53.416;6.730;2023-05-10T13:51:35;15.50;99.90
51982;DHT22;37998;53.416;6.730;2023-05-10T13:54:02;15.60;99.90
51982;DHT22;37998;53.416;6.730;2023-05-10T13:56:28;15.70;99.90
51982;DHT22;37998;53.416;6.730;2023-05-10T13:58:56;15.80;99.90
51982;DHT22;37998;53.416;6.730;2023-05-10T14:01:23;15.90;99.90
51982;DHT22;37998;53.416;6.730;2023-05-10T14:03:49;16.00;99.90
51982;DHT22;37998;53.416;6.730;2023-05-10T14:06:15;15.80;99.90
51982;DHT22;37998;53.416;6.730;2023-05-10T14:08:40;15.80;99.90
51982;DHT22;37998;53.416;6.730;2023-05-10T14:11:06;15.80;99.90
51982;DHT22;37998;53.416;6.730;2023-05-10T14:13:33;15.80;99.90
51982;DHT22;37998;53.416;6.730;2023-05-10T14:15:59;15.70;99.90
51982;DHT22;37998;53.416;6.730;2023-05-10T14:18:26;15.70;99.90
51982;DHT22;37998;53.416;6.730;2023-05-10T14:20:52;15.70;99.90
51982;DHT22;37998;53.416;6.730;2023-05-10T14:23:18;15.60;99.90
51982;DHT22;37998;53.416;6.730;2023-05-10T14:25:50;15.70;99.90
51982;DHT22;37998;53.416;6.730;2023-05-10T14:28:17;15.60;99.90
51982;DHT22;37998;53.416;6.730;2023-05-10T14:30:44;15.50;99.90
51982;DHT22;37998;53.416;6.730;2023-05-10T14:33:10;15.40;99.90
51982;DHT22;37998;53.416;6.730;2023-05-10T14:35:36;15.40;99.90
51982;DHT22;37998;53.416;6.730;2023-05-10T14:38:03;15.40;99.90
51982;DHT22;37998;53.416;6.730;2023-05-10T14:40:29;15.40;99.90
51982;DHT22;37998;53.416;6.730;2023-05-10T14:42:55;15.40;99.90
51982;DHT22;37998;53.416;6.730;2023-05-10T14:45:22;15.40;99.90
51982;DHT22;37998;53.416;6.730;2023-05-10T14:47:49;15.40;99.90
51982;DHT22;37998;53.416;6.730;2023-05-10T14:50:15;15.40;99.90
51982;DHT22;37998;53.416;6.730;2023-05-10T14:52:42;15.40;99.90
51982;DHT22;37998;53.416;6.730;2023-05-10T14:55:08;15.30;99.90
51982;DHT22;37998;53.416;6.730;2023-05-10T14:57:34;15.30;99.90
51982;DHT22;37998;53.416;6.730;2023-05-10T15:00:01;15.30;99.90
51982;DHT22;37998;53.416;6.730;2023-05-10T15:02:26;15.30;99.90
51982;DHT22;37998;53.416;6.730;2023-05-10T15:04:52;15.30;99.90
51982;DHT22;37998;53.416;6.730;2023-05-10T15:07:18;15.20;99.90
51982;DHT22;37998;53.416;6.730;2023-05-10T15:09:44;15.20;99.90
51982;DHT22;37998;53.416;6.730;2023-05-10T15:12:11;15.30;99.90
51982;DHT22;37998;53.416;6.730;2023-05-10T15:14:37;15.30;99.90
51982;DHT22;37998;53.416;6.730;2023-05-10T15:17:05;15.30;99.90
51982;DHT22;37998;53.416;6.730;2023-05-10T15:19:31;15.10;99.90
51982;DHT22;37998;53.416;6.730;2023-05-10T15:21:59;14.90;99.90
51982;DHT22;37998;53.416;6.730;2023-05-10T15:24:25;14.90;99.90
51982;DHT22;37998;53.416;6.730;2023-05-10T15:26:51;14.90;99.90
51982;DHT22;37998;53.416;6.730;2023-05-10T15:29:17;15.00;99.90
51982;DHT22;37998;53.416;6.730;2023-05-10T15:31:49;15.00;99.90
51982;DHT22;37998;53.416;6.730;2023-05-10T15:34:16;15.00;99.90
51982;DHT22;37998;53.416;6.730;2023-05-10T15:36:43;14.90;99.90
51982;DHT22;37998;53.416;6.730;2023-05-10T15:39:10;14.80;99.90
51982;DHT22;37998;53.416;6.730;2023-05-10T15:41:37;14.70;99.90
51982;DHT22;37998;53.416;6.730;2023-05-10T15:44:03;14.60;99.90
51982;DHT22;37998;53.416;6.730;2023-05-10T15:46:29;14.50;99.90
51982;DHT22;37998;53.416;6.730;2023-05-10T15:48:57;14.40;99.90
51982;DHT22;37998;53.416;6.730;2023-05-10T15:51:24;14.40;99.90
51982;DHT22;37998;53.416;6.730;2023-05-10T15:53:50;14.40;99.90
51982;DHT22;37998;53.416;6.730;2023-05-10T15:56:16;14.40;99.90
51982;DHT22;37998;53.416;6.730;2023-05-10T15:58:42;14.40;99.90
51982;DHT22;37998;53.416;6.730;2023-05-10T16:01:09;14.30;99.90
51982;DHT22;37998;53.416;6.730;2023-05-10T16:03:36;14.10;99.90